sensor_id;sensor_type;location;lat;lon;timestamp;temperature;humidity
2929;DHT22;1474;51.460;7.150;2023-02-28T00:00:26;0.60;99.90
2929;DHT22;1474;51.460;7.150;2023-02-28T00:02:51;0.50;99.90
2929;DHT22;1474;51.460;7.150;2023-02-28T00:05:20;0.50;99.90
2929;DHT22;1474;51.460;7.150;2023-02-28T00:07:46;0.50;99.90
2929;DHT22;1474;51.460;7.150;2023-02-28T00:10:15;0.50;99.90
2929;DHT22;1474;51.460;7.150;2023-02-28T00:12:41;0.50;99.90
2929;DHT22;1474;51.460;7.150;2023-02-28T00:15:08;0.50;99.90
2929;DHT22;1474;51.460;7.150;2023-02-28T00:17:34;0.50;99.90
2929;DHT22;1474;51.460;7.150;2023-02-28T00:20:00;0.50;99.90
2929;DHT22;1474;51.460;7.150;2023-02-28T00:22:38;0.50;99.90
2929;DHT22;1474;51.460;7.150;2023-02-28T00:25:04;0.50;99.90
2929;DHT22;1474;51.460;7.150;2023-02-28T00:27:32;0.50;99.90
2929;DHT22;1474;51.460;7.150;2023-02-28T00:29:58;0.50;99.90
2929;DHT22;1474;51.460;7.150;2023-02-28T00:32:24;0.50;99.90
2929;DHT22;1474;51.460;7.150;2023-02-28T00:34:49;0.50;99.90
2929;DHT22;1474;51.460;7.150;2023-02-28T00:37:15;0.50;99.90
2929;DHT22;1474;51.460;7.150;2023-02-28T00:39:41;0.50;99.90
2929;DHT22;1474;51.460;7.150;2023-02-28T00:42:07;0.50;99.90
2929;DHT22;1474;51.460;7.150;2023-02-28T00:44:33;0.40;99.90
2929;DHT22;1474;51.460;7.150;2023-02-28T00:46:59;0.40;99.90
2929;DHT22;1474;51.460;7.150;2023-02-28T00:49:26;0.40;99.90
2929;DHT22;1474;51.460;7.150;2023-02-28T00:51:54;0.50;99.90
2929;DHT22;1474;51.460;7.150;2023-02-28T00:54:20;0.50;99.90
2929;DHT22;1474;51.460;7.150;2023-02-28T00:56:46;0.50;99.90
2929;DHT22;1474;51.460;7.150;2023-02-28T00:59:15;0.50;99.90
2929;DHT22;1474;51.460;7.150;2023-02-28T01:01:41;0.40;99.90
2929;DHT22;1474;51.460;7.150;2023-02-28T01:04:07;0.40;99.90
2929;DHT22;1474;51.460;7.150;2023-02-28T01:06:33;0.40;99.90
2929;DHT22;1474;51.460;7.150;2023-02-28T01:08:59;0.40;99.90
2929;DHT22;1474;51.460;7.150;2023-02-28T01:11:25;0.40;99.90
2929;DHT22;1474;51.460;7.150;2023-02-28T01:13:51;0.40;99.90
2929;DHT22;1474;51.460;7.150;2023-02-28T01:16:17;0.30;99.90
2929;DHT22;1474;51.460;7.150;2023-02-28T01:18:43;0.30;99.90
2929;DHT22;1474;51.460;7.150;2023-02-28T01:21:11;0.30;99.90
2929;DHT22;1474;51.460;7.150;2023-02-28T01:23:38;0.30;99.90
2929;DHT22;1474;51.460;7.150;2023-02-28T01:26:29;0.20;99.90
2929;DHT22;1474;51.460;7.150;2023-02-28T01:28:54;0.20;99.90
2929;DHT22;1474;51.460;7.150;2023-02-28T01:31:21;0.20;99.90
2929;DHT22;1474;51.460;7.150;2023-02-28T01:33:47;0.10;99.90
2929;DHT22;1474;51.460;7.150;2023-02-28T01:36:23;0.10;99.90
2929;DHT22;1474;51.460;7.150;2023-02-28T01:38:49;0.10;99.90
2929;DHT22;1474;51.460;7.150;2023-02-28T01:41:24;0.10;99.90
2929;DHT22;1474;51.460;7.150;2023-02-28T01:46:18;0.00;99.90
2929;DHT22;1474;51.460;7.150;2023-02-28T01:49:29;0.00;99.90
2929;DHT22;1474;51.460;7.150;2023-02-28T01:51:50;0.00;99.90
2929;DHT22;1474;51.460;7.150;2023-02-28T01:54:22;0.00;99.90
2929;DHT22;1474;51.460;7.150;2023-02-28T01:56:54;0.00;99.90
2929;DHT22;1474;51.460;7.150;2023-02-28T01:59:27;0.00;99.90
2929;DHT22;1474;51.460;7.150;2023-02-28T02:01:54;0.00;99.90
2929;DHT22;1474;51.460;7.150;2023-02-28T02:04:22;-0.10;99.90
2929;DHT22;1474;51.460;7.150;2023-02-28T02:06:49;0.00;99.90
2929;DHT22;1474;51.460;7.150;2023-02-28T02:09:15;-0.10;99.90
2929;DHT22;1474;51.460;7.150;2023-02-28T02:11:42;-0.10;99.90
2929;DHT22;1474;51.460;7.150;2023-02-28T02:17:14;-0.10;99.90
2929;DHT22;1474;51.460;7.150;2023-02-28T02:19:53;-0.10;99.90
2929;DHT22;1474;51.460;7.150;2023-02-28T02:36:27;-0.40;99.90
2929;DHT22;1474;51.460;7.150;2023-02-28T02:41:54;-0.50;99.90
2929;DHT22;1474;51.460;7.150;2023-02-28T02:44:27;-0.50;99.90
2929;DHT22;1474;51.460;7.150;2023-02-28T02:47:05;-0.50;99.90
2929;DHT22;1474;51.460;7.150;2023-02-28T02:49:33;-0.50;99.90
2929;DHT22;1474;51.460;7.150;2023-02-28T02:52:04;-0.60;99.90
2929;DHT22;1474;51.460;7.150;2023-02-28T02:54:34;-0.60;99.90
2929;DHT22;1474;51.460;7.150;2023-02-28T02:57:06;-0.60;99.90
2929;DHT22;1474;51.460;7.150;2023-02-28T02:59:36;-0.60;99.90
2929;DHT22;1474;51.460;7.150;2023-02-28T03:02:06;-0.60;99.90
2929;DHT22;1474;51.460;7.150;2023-02-28T03:04:38;-0.70;99.90
2929;DHT22;1474;51.460;7.150;2023-02-28T03:07:05;-0.70;99.90
2929;DHT22;1474;51.460;7.150;2023-02-28T03:09:33;-0.70;99.90
2929;DHT22;1474;51.460;7.150;2023-02-28T03:12:00;-0.70;99.90
2929;DHT22;1474;51.460;7.150;2023-02-28T03:14:48;-0.70;99.90
2929;DHT22;1474;51.460;7.150;2023-02-28T03:17:30;-0.70;99.90
2929;DHT22;1474;51.460;7.150;2023-02-28T03:20:14;-0.70;99.90
2929;DHT22;1474;51.460;7.150;2023-02-28T03:30:52;-0.80;99.90
2929;DHT22;1474;51.460;7.150;2023-02-28T03:33:28;-0.80;99.90
2929;DHT22;1474;51.460;7.150;2023-02-28T03:36:08;-0.80;99.90
2929;DHT22;1474;51.460;7.150;2023-02-28T03:38:39;-0.80;99.90
2929;DHT22;1474;51.460;7.150;2023-02-28T03:41:12;-0.80;99.90
2929;DHT22;1474;51.460;7.150;2023-02-28T03:43:43;-0.80;99.90
2929;DHT22;1474;51.460;7.150;2023-02-28T03:46:12;-0.80;99.90
2929;DHT22;1474;51.460;7.150;2023-02-28T03:49:42;-0.80;99.90
2929;DHT22;1474;51.460;7.150;2023-02-28T03:51:36;-0.80;99.90
2929;DHT22;1474;51.460;7.150;2023-02-28T03:54:12;-0.80;99.90
2929;DHT22;1474;51.460;7.150;2023-02-28T03:56:48;-0.80;99.90
2929;DHT22;1474;51.460;7.150;2023-02-28T03:59:31;-0.80;99.90
2929;DHT22;1474;51.460;7.150;2023-02-28T04:01:59;-0.90;99.90
2929;DHT22;1474;51.460;7.150;2023-02-28T04:04:25;-0.90;99.90
2929;DHT22;1474;51.460;7.150;2023-02-28T04:06:52;-0.90;99.90
2929;DHT22;1474;51.460;7.150;2023-02-28T04:09:18;-0.90;99.90
2929;DHT22;1474;51.460;7.150;2023-02-28T04:11:46;-1.00;99.90
2929;DHT22;1474;51.460;7.150;2023-02-28T04:14:14;-1.00;99.90
2929;DHT22;1474;51.460;7.150;2023-02-28T04:16:41;-1.00;99.90
2929;DHT22;1474;51.460;7.150;2023-02-28T04:19:08;-1.00;99.90
2929;DHT22;1474;51.460;7.150;2023-02-28T04:21:43;-1.10;99.90
2929;DHT22;1474;51.460;7.150;2023-02-28T04:24:11;-1.10;99.90
2929;DHT22;1474;51.460;7.150;2023-02-28T04:26:40;-1.10;99.90
2929;DHT22;1474;51.460;7.150;2023-02-28T04:29:07;-1.20;99.90
2929;DHT22;1474;51.460;7.150;2023-02-28T04:31:33;-1.10;99.90
2929;DHT22;1474;51.460;7.150;2023-02-28T04:34:00;-1.20;99.90
2929;DHT22;1474;51.460;7.150;2023-02-28T04:36:26;-1.20;99.90
2929;DHT22;1474;51.460;7.150;2023-02-28T04:38:51;-1.20;99.90
2929;DHT22;1474;51.460;7.150;2023-02-28T04:41:17;-1.30;99.90
2929;DHT22;1474;51.460;7.150;2023-02-28T04:43:43;-1.30;99.90
2929;DHT22;1474;51.460;7.150;2023-02-28T04:46:09;-1.30;99.90
2929;DHT22;1474;51.460;7.150;2023-02-28T04:48:38;-1.40;99.90
2929;DHT22;1474;51.460;7.150;2023-02-28T04:51:13;-1.40;99.90
2929;DHT22;1474;51.460;7.150;2023-02-28T04:53:40;-1.40;99.90
2929;DHT22;1474;51.460;7.150;2023-02-28T04:56:07;-1.40;99.90
2929;DHT22;1474;51.460;7.150;2023-02-28T04:58:34;-1.40;99.90
2929;DHT22;1474;51.460;7.150;2023-02-28T05:01:16;-1.40;99.90
2929;DHT22;1474;51.460;7.150;2023-02-28T05:03:42;-1.40;99.90
2929;DHT22;1474;51.460;7.150;2023-02-28T05:06:09;-1.40;99.90
2929;DHT22;1474;51.460;7.150;2023-02-28T05:08:35;-1.40;99.90
2929;DHT22;1474;51.460;7.150;2023-02-28T05:11:02;-1.40;99.90
2929;DHT22;1474;51.460;7.150;2023-02-28T05:13:28;-1.40;99.90
2929;DHT22;1474;51.460;7.150;2023-02-28T05:15:54;-1.40;99.90
2929;DHT22;1474;51.460;7.150;2023-02-28T05:18:20;-1.40;99.90
2929;DHT22;1474;51.460;7.150;2023-02-28T05:20:45;-1.40;99.90
2929;DHT22;1474;51.460;7.150;2023-02-28T05:23:12;-1.40;99.90
2929;DHT22;1474;51.460;7.150;2023-02-28T05:25:38;-1.50;99.90
2929;DHT22;1474;51.460;7.150;2023-02-28T05:28:04;-1.50;99.90
2929;DHT22;1474;51.460;7.150;2023-02-28T05:30:30;-1.50;99.90
2929;DHT22;1474;51.460;7.150;2023-02-28T05:32:57;-1.50;99.90
2929;DHT22;1474;51.460;7.150;2023-02-28T05:35:23;-1.50;99.90
2929;DHT22;1474;51.460;7.150;2023-02-28T05:37:49;-1.50;99.90
2929;DHT22;1474;51.460;7.150;2023-02-28T05:40:15;-1.50;99.90
2929;DHT22;1474;51.460;7.150;2023-02-28T05:42:41;-1.50;99.90
2929;DHT22;1474;51.460;7.150;2023-02-28T05:45:07;-1.60;99.90
2929;DHT22;1474;51.460;7.150;2023-02-28T05:47:33;-1.60;99.90
2929;DHT22;1474;51.460;7.150;2023-02-28T05:49:59;-1.60;99.90
2929;DHT22;1474;51.460;7.150;2023-02-28T05:52:25;-1.60;99.90
2929;DHT22;1474;51.460;7.150;2023-02-28T05:54:51;-1.60;99.90
2929;DHT22;1474;51.460;7.150;2023-02-28T05:57:17;-1.70;99.90
2929;DHT22;1474;51.460;7.150;2023-02-28T05:59:42;-1.70;99.90
2929;DHT22;1474;51.460;7.150;2023-02-28T06:02:13;-1.70;99.90
2929;DHT22;1474;51.460;7.150;2023-02-28T06:04:39;-1.70;99.90
2929;DHT22;1474;51.460;7.150;2023-02-28T06:07:06;-1.70;99.90
2929;DHT22;1474;51.460;7.150;2023-02-28T06:09:32;-1.70;99.90
2929;DHT22;1474;51.460;7.150;2023-02-28T06:11:59;-1.70;99.90
2929;DHT22;1474;51.460;7.150;2023-02-28T06:14:25;-1.70;99.90
2929;DHT22;1474;51.460;7.150;2023-02-28T06:16:51;-1.80;99.90
2929;DHT22;1474;51.460;7.150;2023-02-28T06:19:16;-1.70;99.90
2929;DHT22;1474;51.460;7.150;2023-02-28T06:21:42;-1.70;99.90
2929;DHT22;1474;51.460;7.150;2023-02-28T06:24:08;-1.70;99.90
2929;DHT22;1474;51.460;7.150;2023-02-28T06:26:34;-1.80;99.90
2929;DHT22;1474;51.460;7.150;2023-02-28T06:29:00;-1.70;99.90
2929;DHT22;1474;51.460;7.150;2023-02-28T06:31:26;-1.70;99.90
2929;DHT22;1474;51.460;7.150;2023-02-28T06:33:54;-1.80;99.90
2929;DHT22;1474;51.460;7.150;2023-02-28T06:36:20;-1.80;99.90
2929;DHT22;1474;51.460;7.150;2023-02-28T06:38:46;-1.80;99.90
2929;DHT22;1474;51.460;7.150;2023-02-28T06:41:17;-1.80;99.90
2929;DHT22;1474;51.460;7.150;2023-02-28T06:43:43;-1.70;99.90
2929;DHT22;1474;51.460;7.150;2023-02-28T06:46:12;-1.70;99.90
2929;DHT22;1474;51.460;7.150;2023-02-28T06:48:39;-1.70;99.90
2929;DHT22;1474;51.460;7.150;2023-02-28T06:51:12;-1.70;99.90
2929;DHT22;1474;51.460;7.150;2023-02-28T06:53:40;-1.70;99.90
2929;DHT22;1474;51.460;7.150;2023-02-28T06:56:07;-1.70;99.90
2929;DHT22;1474;51.460;7.150;2023-02-28T06:58:34;-1.70;99.90
2929;DHT22;1474;51.460;7.150;2023-02-28T07:01:00;-1.60;99.90
2929;DHT22;1474;51.460;7.150;2023-02-28T07:03:26;-1.70;99.90
2929;DHT22;1474;51.460;7.150;2023-02-28T07:05:52;-1.60;99.90
2929;DHT22;1474;51.460;7.150;2023-02-28T07:08:17;-1.60;99.90
2929;DHT22;1474;51.460;7.150;2023-02-28T07:10:43;-1.60;99.90
2929;DHT22;1474;51.460;7.150;2023-02-28T07:13:10;-1.60;99.90
2929;DHT22;1474;51.460;7.150;2023-02-28T07:15:37;-1.60;99.90
2929;DHT22;1474;51.460;7.150;2023-02-28T07:18:03;-1.50;99.90
2929;DHT22;1474;51.460;7.150;2023-02-28T07:20:29;-1.50;99.90
2929;DHT22;1474;51.460;7.150;2023-02-28T07:22:55;-1.40;99.90
2929;DHT22;1474;51.460;7.150;2023-02-28T07:25:30;-1.40;99.90
2929;DHT22;1474;51.460;7.150;2023-02-28T07:27:56;-1.30;99.90
2929;DHT22;1474;51.460;7.150;2023-02-28T07:30:22;-1.20;99.90
2929;DHT22;1474;51.460;7.150;2023-02-28T07:32:48;-1.20;99.90
2929;DHT22;1474;51.460;7.150;2023-02-28T07:35:13;-1.20;99.90
2929;DHT22;1474;51.460;7.150;2023-02-28T07:37:41;-1.10;99.90
2929;DHT22;1474;51.460;7.150;2023-02-28T07:40:09;-1.00;99.90
2929;DHT22;1474;51.460;7.150;2023-02-28T07:42:37;-0.90;99.90
2929;DHT22;1474;51.460;7.150;2023-02-28T07:45:04;-0.80;99.90
2929;DHT22;1474;51.460;7.150;2023-02-28T07:47:30;-0.70;99.90
2929;DHT22;1474;51.460;7.150;2023-02-28T07:49:57;-0.50;99.90
2929;DHT22;1474;51.460;7.150;2023-02-28T07:52:23;-0.30;99.90
2929;DHT22;1474;51.460;7.150;2023-02-28T07:54:49;-0.10;99.90
2929;DHT22;1474;51.460;7.150;2023-02-28T07:57:15;0.00;99.90
2929;DHT22;1474;51.460;7.150;2023-02-28T07:59:41;0.00;99.90
2929;DHT22;1474;51.460;7.150;2023-02-28T08:02:09;0.10;99.90
2929;DHT22;1474;51.460;7.150;2023-02-28T08:04:37;0.10;99.90
2929;DHT22;1474;51.460;7.150;2023-02-28T08:07:03;0.10;99.90
2929;DHT22;1474;51.460;7.150;2023-02-28T08:09:28;0.10;99.90
2929;DHT22;1474;51.460;7.150;2023-02-28T08:11:55;0.20;99.90
2929;DHT22;1474;51.460;7.150;2023-02-28T08:14:20;0.30;99.90
2929;DHT22;1474;51.460;7.150;2023-02-28T08:16:46;0.30;99.90
2929;DHT22;1474;51.460;7.150;2023-02-28T08:19:11;0.30;99.90
2929;DHT22;1474;51.460;7.150;2023-02-28T08:21:37;0.40;99.90
2929;DHT22;1474;51.460;7.150;2023-02-28T08:24:03;0.50;99.90
2929;DHT22;1474;51.460;7.150;2023-02-28T08:26:28;0.50;99.90
2929;DHT22;1474;51.460;7.150;2023-02-28T08:28:54;0.60;99.90
2929;DHT22;1474;51.460;7.150;2023-02-28T08:31:20;0.60;99.90
2929;DHT22;1474;51.460;7.150;2023-02-28T08:33:46;0.70;99.90
2929;DHT22;1474;51.460;7.150;2023-02-28T08:36:14;0.90;99.90
2929;DHT22;1474;51.460;7.150;2023-02-28T08:38:40;1.10;99.90
2929;DHT22;1474;51.460;7.150;2023-02-28T08:41:08;1.20;99.90
2929;DHT22;1474;51.460;7.150;2023-02-28T08:43:35;1.40;99.90
2929;DHT22;1474;51.460;7.150;2023-02-28T08:46:01;1.60;99.90
2929;DHT22;1474;51.460;7.150;2023-02-28T08:48:28;1.80;99.90
2929;DHT22;1474;51.460;7.150;2023-02-28T08:51:07;1.80;99.90
2929;DHT22;1474;51.460;7.150;2023-02-28T08:53:35;2.10;99.90
2929;DHT22;1474;51.460;7.150;2023-02-28T08:56:04;2.20;99.90
2929;DHT22;1474;51.460;7.150;2023-02-28T08:58:30;2.40;99.90
2929;DHT22;1474;51.460;7.150;2023-02-28T09:00:56;2.40;99.90
2929;DHT22;1474;51.460;7.150;2023-02-28T09:03:22;2.40;99.90
2929;DHT22;1474;51.460;7.150;2023-02-28T09:06:09;2.40;99.90
2929;DHT22;1474;51.460;7.150;2023-02-28T09:08:35;2.40;99.90
2929;DHT22;1474;51.460;7.150;2023-02-28T09:11:02;2.60;99.90
2929;DHT22;1474;51.460;7.150;2023-02-28T09:13:28;2.60;99.90
2929;DHT22;1474;51.460;7.150;2023-02-28T09:15:56;2.60;99.90
2929;DHT22;1474;51.460;7.150;2023-02-28T09:18:22;2.80;99.90
2929;DHT22;1474;51.460;7.150;2023-02-28T09:20:48;3.00;99.90
2929;DHT22;1474;51.460;7.150;2023-02-28T09:23:13;3.10;99.90
2929;DHT22;1474;51.460;7.150;2023-02-28T09:25:46;3.40;99.90
2929;DHT22;1474;51.460;7.150;2023-02-28T09:28:12;3.50;99.90
2929;DHT22;1474;51.460;7.150;2023-02-28T09:30:38;3.70;99.90
2929;DHT22;1474;51.460;7.150;2023-02-28T09:33:03;3.70;99.90
2929;DHT22;1474;51.460;7.150;2023-02-28T09:35:29;3.80;99.90
2929;DHT22;1474;51.460;7.150;2023-02-28T09:37:56;3.90;99.90
2929;DHT22;1474;51.460;7.150;2023-02-28T09:40:24;3.90;99.90
2929;DHT22;1474;51.460;7.150;2023-02-28T09:42:53;4.10;99.90
2929;DHT22;1474;51.460;7.150;2023-02-28T09:45:24;4.20;99.50
2929;DHT22;1474;51.460;7.150;2023-02-28T09:47:51;4.20;99.50
2929;DHT22;1474;51.460;7.150;2023-02-28T09:50:38;4.20;98.30
2929;DHT22;1474;51.460;7.150;2023-02-28T09:53:20;4.10;99.30
2929;DHT22;1474;51.460;7.150;2023-02-28T09:55:50;4.10;99.60
2929;DHT22;1474;51.460;7.150;2023-02-28T09:58:34;4.20;99.90
2929;DHT22;1474;51.460;7.150;2023-02-28T10:01:31;4.30;99.90
2929;DHT22;1474;51.460;7.150;2023-02-28T10:06:44;4.60;98.60
2929;DHT22;1474;51.460;7.150;2023-02-28T10:09:15;4.70;98.00
2929;DHT22;1474;51.460;7.150;2023-02-28T10:11:44;4.70;99.10
2929;DHT22;1474;51.460;7.150;2023-02-28T10:14:16;4.70;96.50
2929;DHT22;1474;51.460;7.150;2023-02-28T10:16:49;4.60;99.80
2929;DHT22;1474;51.460;7.150;2023-02-28T10:21:57;4.70;98.70
2929;DHT22;1474;51.460;7.150;2023-02-28T10:26:58;4.80;97.60
2929;DHT22;1474;51.460;7.150;2023-02-28T10:29:25;4.90;98.30
2929;DHT22;1474;51.460;7.150;2023-02-28T10:31:51;4.90;96.10
2929;DHT22;1474;51.460;7.150;2023-02-28T10:34:17;4.80;96.70
2929;DHT22;1474;51.460;7.150;2023-02-28T10:36:43;4.70;96.90
2929;DHT22;1474;51.460;7.150;2023-02-28T10:39:38;4.70;97.40
2929;DHT22;1474;51.460;7.150;2023-02-28T10:42:05;4.60;96.70
2929;DHT22;1474;51.460;7.150;2023-02-28T10:44:42;4.70;98.60
2929;DHT22;1474;51.460;7.150;2023-02-28T10:47:16;4.90;96.20
2929;DHT22;1474;51.460;7.150;2023-02-28T10:49:50;5.10;93.70
2929;DHT22;1474;51.460;7.150;2023-02-28T10:52:40;5.00;93.90
2929;DHT22;1474;51.460;7.150;2023-02-28T10:55:24;5.10;94.00
2929;DHT22;1474;51.460;7.150;2023-02-28T10:57:53;5.20;92.10
2929;DHT22;1474;51.460;7.150;2023-02-28T11:00:21;5.20;92.20
2929;DHT22;1474;51.460;7.150;2023-02-28T11:02:47;5.20;93.40
2929;DHT22;1474;51.460;7.150;2023-02-28T11:05:33;5.00;91.20
2929;DHT22;1474;51.460;7.150;2023-02-28T11:08:13;4.80;92.30
2929;DHT22;1474;51.460;7.150;2023-02-28T11:10:39;4.80;93.90
2929;DHT22;1474;51.460;7.150;2023-02-28T11:13:05;5.00;95.30
2929;DHT22;1474;51.460;7.150;2023-02-28T11:15:33;5.10;92.10
2929;DHT22;1474;51.460;7.150;2023-02-28T11:21:06;5.20;91.20
2929;DHT22;1474;51.460;7.150;2023-02-28T11:23:34;5.20;92.50
2929;DHT22;1474;51.460;7.150;2023-02-28T11:26:03;5.30;92.30
2929;DHT22;1474;51.460;7.150;2023-02-28T11:28:38;5.50;93.60
2929;DHT22;1474;51.460;7.150;2023-02-28T11:33:53;5.10;91.80
2929;DHT22;1474;51.460;7.150;2023-02-28T11:36:26;4.80;92.90
2929;DHT22;1474;51.460;7.150;2023-02-28T11:38:54;4.70;93.60
2929;DHT22;1474;51.460;7.150;2023-02-28T11:46:31;4.80;96.40
2929;DHT22;1474;51.460;7.150;2023-02-28T11:49:30;5.20;94.00
2929;DHT22;1474;51.460;7.150;2023-02-28T11:58:15;6.00;95.00
2929;DHT22;1474;51.460;7.150;2023-02-28T12:05:44;6.00;92.30
2929;DHT22;1474;51.460;7.150;2023-02-28T12:08:31;5.90;90.80
2929;DHT22;1474;51.460;7.150;2023-02-28T12:22:32;6.10;91.20
2929;DHT22;1474;51.460;7.150;2023-02-28T12:25:20;6.00;91.00
2929;DHT22;1474;51.460;7.150;2023-02-28T12:27:48;5.90;91.20
2929;DHT22;1474;51.460;7.150;2023-02-28T12:30:35;5.70;91.60
2929;DHT22;1474;51.460;7.150;2023-02-28T12:33:14;5.70;92.20
2929;DHT22;1474;51.460;7.150;2023-02-28T12:38:24;5.60;91.80
2929;DHT22;1474;51.460;7.150;2023-02-28T12:40:57;5.60;92.30
2929;DHT22;1474;51.460;7.150;2023-02-28T12:43:31;5.90;93.30
2929;DHT22;1474;51.460;7.150;2023-02-28T12:48:56;6.30;93.50
2929;DHT22;1474;51.460;7.150;2023-02-28T12:51:25;6.60;93.10
2929;DHT22;1474;51.460;7.150;2023-02-28T12:56:36;6.50;90.80
2929;DHT22;1474;51.460;7.150;2023-02-28T12:59:27;6.50;92.10
2929;DHT22;1474;51.460;7.150;2023-02-28T13:02:16;6.60;90.50
2929;DHT22;1474;51.460;7.150;2023-02-28T13:10:08;6.40;93.00
2929;DHT22;1474;51.460;7.150;2023-02-28T13:12:35;6.40;91.20
2929;DHT22;1474;51.460;7.150;2023-02-28T13:15:16;6.30;92.00
2929;DHT22;1474;51.460;7.150;2023-02-28T13:17:49;6.20;91.10
2929;DHT22;1474;51.460;7.150;2023-02-28T13:20:21;6.10;93.50
2929;DHT22;1474;51.460;7.150;2023-02-28T13:22:51;6.00;92.10
2929;DHT22;1474;51.460;7.150;2023-02-28T13:27:59;6.00;94.20
2929;DHT22;1474;51.460;7.150;2023-02-28T13:33:29;6.20;90.90
2929;DHT22;1474;51.460;7.150;2023-02-28T13:44:19;6.30;91.90
2929;DHT22;1474;51.460;7.150;2023-02-28T13:51:53;6.60;96.60
2929;DHT22;1474;51.460;7.150;2023-02-28T14:02:37;6.60;93.70
2929;DHT22;1474;51.460;7.150;2023-02-28T14:05:06;6.40;93.60
2929;DHT22;1474;51.460;7.150;2023-02-28T14:07:46;6.30;95.20
2929;DHT22;1474;51.460;7.150;2023-02-28T14:10:30;6.30;95.40
2929;DHT22;1474;51.460;7.150;2023-02-28T14:12:59;6.20;95.60
2929;DHT22;1474;51.460;7.150;2023-02-28T14:17:57;6.20;96.00
2929;DHT22;1474;51.460;7.150;2023-02-28T14:20:28;6.20;94.60
2929;DHT22;1474;51.460;7.150;2023-02-28T14:23:04;6.20;95.50
2929;DHT22;1474;51.460;7.150;2023-02-28T14:31:10;6.10;96.90
2929;DHT22;1474;51.460;7.150;2023-02-28T14:33:47;6.10;96.30
2929;DHT22;1474;51.460;7.150;2023-02-28T14:36:23;6.10;98.30
2929;DHT22;1474;51.460;7.150;2023-02-28T14:38:52;6.20;96.80
2929;DHT22;1474;51.460;7.150;2023-02-28T14:41:31;6.10;96.90
2929;DHT22;1474;51.460;7.150;2023-02-28T14:44:01;6.00;96.10
2929;DHT22;1474;51.460;7.150;2023-02-28T14:46:35;5.90;97.40
2929;DHT22;1474;51.460;7.150;2023-02-28T14:49:11;6.00;97.30
2929;DHT22;1474;51.460;7.150;2023-02-28T14:51:37;6.00;96.80
2929;DHT22;1474;51.460;7.150;2023-02-28T14:54:03;5.90;97.30
2929;DHT22;1474;51.460;7.150;2023-02-28T14:56:39;5.80;97.40
2929;DHT22;1474;51.460;7.150;2023-02-28T14:59:17;5.80;97.50
2929;DHT22;1474;51.460;7.150;2023-02-28T15:01:46;5.80;98.30
2929;DHT22;1474;51.460;7.150;2023-02-28T15:04:24;5.80;97.90
2929;DHT22;1474;51.460;7.150;2023-02-28T15:07:16;5.80;97.80
2929;DHT22;1474;51.460;7.150;2023-02-28T15:09:42;5.90;96.30
2929;DHT22;1474;51.460;7.150;2023-02-28T15:12:13;5.80;95.80
2929;DHT22;1474;51.460;7.150;2023-02-28T15:14:42;5.80;95.90
2929;DHT22;1474;51.460;7.150;2023-02-28T15:17:15;5.70;95.40
2929;DHT22;1474;51.460;7.150;2023-02-28T15:19:48;5.50;96.20
2929;DHT22;1474;51.460;7.150;2023-02-28T15:22:20;5.50;97.20
2929;DHT22;1474;51.460;7.150;2023-02-28T15:24:51;5.50;96.60
2929;DHT22;1474;51.460;7.150;2023-02-28T15:27:21;5.60;96.80
2929;DHT22;1474;51.460;7.150;2023-02-28T15:29:49;5.60;96.90
2929;DHT22;1474;51.460;7.150;2023-02-28T15:32:28;5.70;96.70
2929;DHT22;1474;51.460;7.150;2023-02-28T15:34:55;5.60;96.10
2929;DHT22;1474;51.460;7.150;2023-02-28T15:37:45;5.60;96.20
2929;DHT22;1474;51.460;7.150;2023-02-28T15:42:37;5.50;96.00
2929;DHT22;1474;51.460;7.150;2023-02-28T15:45:03;5.50;96.20
2929;DHT22;1474;51.460;7.150;2023-02-28T15:47:30;5.40;96.20
2929;DHT22;1474;51.460;7.150;2023-02-28T15:50:06;5.40;97.50
2929;DHT22;1474;51.460;7.150;2023-02-28T15:52:44;5.40;97.60
2929;DHT22;1474;51.460;7.150;2023-02-28T15:55:23;5.40;97.70
2929;DHT22;1474;51.460;7.150;2023-02-28T15:57:53;5.40;97.50
2929;DHT22;1474;51.460;7.150;2023-02-28T16:00:22;5.40;97.80
2929;DHT22;1474;51.460;7.150;2023-02-28T16:02:49;5.40;98.10
2929;DHT22;1474;51.460;7.150;2023-02-28T16:05:24;5.40;98.40
2929;DHT22;1474;51.460;7.150;2023-02-28T16:08:01;5.30;99.30
2929;DHT22;1474;51.460;7.150;2023-02-28T16:10:36;5.30;99.90
2929;DHT22;1474;51.460;7.150;2023-02-28T16:13:02;5.20;99.80
2929;DHT22;1474;51.460;7.150;2023-02-28T16:15:37;5.10;99.90
2929;DHT22;1474;51.460;7.150;2023-02-28T16:18:08;5.10;99.90
2929;DHT22;1474;51.460;7.150;2023-02-28T16:20:35;5.00;99.90
2929;DHT22;1474;51.460;7.150;2023-02-28T16:23:01;4.90;99.90
2929;DHT22;1474;51.460;7.150;2023-02-28T16:25:36;4.80;99.90
2929;DHT22;1474;51.460;7.150;2023-02-28T16:28:02;4.70;99.90
2929;DHT22;1474;51.460;7.150;2023-02-28T16:30:29;4.80;99.90
2929;DHT22;1474;51.460;7.150;2023-02-28T16:32:58;4.70;99.90
2929;DHT22;1474;51.460;7.150;2023-02-28T16:35:25;4.70;99.90
2929;DHT22;1474;51.460;7.150;2023-02-28T16:37:51;4.70;99.90
2929;DHT22;1474;51.460;7.150;2023-02-28T16:40:20;4.70;99.90
2929;DHT22;1474;51.460;7.150;2023-02-28T16:42:49;4.60;99.90
2929;DHT22;1474;51.460;7.150;2023-02-28T16:45:21;4.60;99.90
2929;DHT22;1474;51.460;7.150;2023-02-28T16:47:47;4.50;99.90
2929;DHT22;1474;51.460;7.150;2023-02-28T16:50:25;4.50;99.90
2929;DHT22;1474;51.460;7.150;2023-02-28T16:52:51;4.50;99.90
2929;DHT22;1474;51.460;7.150;2023-02-28T16:55:18;4.50;99.90
2929;DHT22;1474;51.460;7.150;2023-02-28T16:57:46;4.50;99.90
2929;DHT22;1474;51.460;7.150;2023-02-28T17:00:13;4.40;99.90
2929;DHT22;1474;51.460;7.150;2023-02-28T17:02:39;4.40;99.90
2929;DHT22;1474;51.460;7.150;2023-02-28T17:05:05;4.30;99.90
2929;DHT22;1474;51.460;7.150;2023-02-28T17:07:31;4.30;99.90
2929;DHT22;1474;51.460;7.150;2023-02-28T17:09:58;4.30;99.90
2929;DHT22;1474;51.460;7.150;2023-02-28T17:12:26;4.30;99.90
2929;DHT22;1474;51.460;7.150;2023-02-28T17:14:52;4.20;99.90
2929;DHT22;1474;51.460;7.150;2023-02-28T17:17:21;4.20;99.90
2929;DHT22;1474;51.460;7.150;2023-02-28T17:19:47;4.20;99.90
2929;DHT22;1474;51.460;7.150;2023-02-28T17:22:12;4.10;99.90
2929;DHT22;1474;51.460;7.150;2023-02-28T17:24:38;4.10;99.90
2929;DHT22;1474;51.460;7.150;2023-02-28T17:27:05;4.10;99.90
2929;DHT22;1474;51.460;7.150;2023-02-28T17:29:33;4.10;99.90
2929;DHT22;1474;51.460;7.150;2023-02-28T17:31:59;4.00;99.90
2929;DHT22;1474;51.460;7.150;2023-02-28T17:34:24;4.10;99.90
2929;DHT22;1474;51.460;7.150;2023-02-28T17:36:51;4.10;99.90
2929;DHT22;1474;51.460;7.150;2023-02-28T17:39:18;4.00;99.90
2929;DHT22;1474;51.460;7.150;2023-02-28T17:41:54;4.00;99.90
2929;DHT22;1474;51.460;7.150;2023-02-28T17:44:21;4.00;99.90
2929;DHT22;1474;51.460;7.150;2023-02-28T17:46:48;3.90;99.90
2929;DHT22;1474;51.460;7.150;2023-02-28T17:49:17;3.90;99.90
2929;DHT22;1474;51.460;7.150;2023-02-28T17:51:43;3.80;99.90
2929;DHT22;1474;51.460;7.150;2023-02-28T17:54:09;3.80;99.90
2929;DHT22;1474;51.460;7.150;2023-02-28T17:56:35;3.80;99.90
2929;DHT22;1474;51.460;7.150;2023-02-28T17:59:01;3.80;99.90
2929;DHT22;1474;51.460;7.150;2023-02-28T18:01:27;3.80;99.90
2929;DHT22;1474;51.460;7.150;2023-02-28T18:03:54;3.80;99.90
2929;DHT22;1474;51.460;7.150;2023-02-28T18:06:23;3.80;99.90
2929;DHT22;1474;51.460;7.150;2023-02-28T18:08:50;3.80;99.90
2929;DHT22;1474;51.460;7.150;2023-02-28T18:11:20;3.70;99.90
2929;DHT22;1474;51.460;7.150;2023-02-28T18:13:47;3.70;99.90
2929;DHT22;1474;51.460;7.150;2023-02-28T18:16:15;3.60;99.90
2929;DHT22;1474;51.460;7.150;2023-02-28T18:18:42;3.60;99.90
2929;DHT22;1474;51.460;7.150;2023-02-28T18:21:09;3.50;99.90
2929;DHT22;1474;51.460;7.150;2023-02-28T18:23:36;3.50;99.90
2929;DHT22;1474;51.460;7.150;2023-02-28T18:26:16;3.50;99.90
2929;DHT22;1474;51.460;7.150;2023-02-28T18:28:42;3.50;99.90
2929;DHT22;1474;51.460;7.150;2023-02-28T18:31:13;3.50;99.90